Terminal Aerodrome Forecast
Issued by NWS

Current Version | Previous Version | Graphics & Text | Print | Product List | Glossary On
Versions: 1 2 3 4 5 6 7 8 9 10 11 12 13 14 15 16 17 18 19 20 21 22
000
FTUS41 KPBZ 241300 AAA
TAFMGW
TAF AMD
KMGW 241313Z 2413/2512 VRB03KT 2SM BR OVC005
      TEMPO 2413/2415 3/4SM -SN OVC003
     FM241500 VRB03KT 4SM BR OVC015
     FM242300 25007KT P6SM OVC015=

USA.gov is the U.S. government's official web portal to all federal, state and local government web resources and services.